Time;durP1;ratioP1;P1;durP2;ratioP2;P2;SDS_P1;SDS_P2;PMS_P1;PMS_P2;Temp;Humidity;BMP_temperature;BMP_pressure;BME280_temperature;BME280_humidity;BME280_pressure;Samples;Min_cycle;Max_cycle;Signal;HPM_P1;HPM_P2
2023/09/03 00:02:11;;;;;;;9.00;7.80;;;;;;;12.55;79.77;100426.36;219754;1257;140383;-70
2023/09/03 00:07:15;;;;;;;7.20;6.60;;;;;;;12.54;79.90;100422.98;220518;1257;140946;-71
2023/09/03 00:12:19;;;;;;;8.50;7.70;;;;;;;12.48;79.69;100421.10;219768;1257;140679;-69
2023/09/03 00:17:22;;;;;;;12.00;8.10;;;;;;;12.43;79.95;100423.64;220570;1256;139651;-69
2023/09/03 00:22:25;;;;;;;10.60;8.10;;;;;;;12.44;80.32;100425.52;218692;1260;140890;-69
2023/09/03 00:27:29;;;;;;;12.80;9.30;;;;;;;12.46;80.44;100425.28;219417;1260;141597;-69
2023/09/03 00:32:33;;;;;;;10.50;8.80;;;;;;;12.48;80.48;100421.52;218611;1260;140773;-69
2023/09/03 00:37:37;;;;;;;7.90;7.00;;;;;;;12.41;80.14;100422.36;218413;1260;140431;-69
2023/09/03 00:42:42;;;;;;;11.10;8.40;;;;;;;12.36;80.25;100424.20;218802;1260;141202;-70
2023/09/03 00:47:47;;;;;;;8.30;7.00;;;;;;;12.34;80.71;100425.35;218885;1260;141260;-69
2023/09/03 00:52:52;;;;;;;8.20;6.70;;;;;;;12.31;80.50;100429.46;218032;1256;139915;-70
2023/09/03 00:57:56;;;;;;;8.20;7.30;;;;;;;12.22;80.36;100430.80;217942;1261;141476;-68
2023/09/03 01:03:00;;;;;;;7.20;6.50;;;;;;;12.17;80.97;100429.81;217990;1260;139800;-70
2023/09/03 01:08:05;;;;;;;8.10;7.30;;;;;;;12.16;81.16;100428.09;217847;1260;140369;-70
2023/09/03 01:13:32;;;;;;;8.80;8.00;;;;;;;12.18;81.53;100433.17;218061;1260;141631;-70
2023/09/03 01:18:39;;;;;;;8.20;7.50;;;;;;;12.21;81.73;100436.46;217702;1257;140067;-69
2023/09/03 01:24:02;;;;;;;10.20;8.20;;;;;;;12.22;81.91;100433.20;217802;1260;140324;-70
2023/09/03 01:29:07;;;;;;;8.60;7.80;;;;;;;12.22;82.11;100429.90;218362;1260;142236;-70
2023/09/03 01:34:12;;;;;;;7.10;6.50;;;;;;;12.18;82.14;100421.62;217748;1260;141192;-69
2023/09/03 01:39:17;;;;;;;13.40;7.60;;;;;;;12.13;82.24;100423.91;218650;1260;140153;-69
2023/09/03 01:44:20;;;;;;;9.20;7.10;;;;;;;12.13;82.40;100421.81;218723;1260;140942;-69
2023/09/03 01:49:35;;;;;;;10.70;7.00;;;;;;;12.15;82.75;100423.84;218774;1258;140324;-68
2023/09/03 01:54:40;;;;;;;7.60;7.00;;;;;;;12.20;83.37;100424.89;217591;1260;141961;-69
2023/09/03 01:59:49;;;;;;;10.30;8.40;;;;;;;12.24;83.19;100413.99;218997;1258;140291;-70
2023/09/03 02:04:54;;;;;;;9.20;8.40;;;;;;;12.32;83.83;100408.48;217797;1257;140180;-70
2023/09/03 02:09:57;;;;;;;8.70;7.90;;;;;;;12.40;83.98;100402.51;220169;1257;139746;-71
2023/09/03 02:15:00;;;;;;;10.80;8.00;;;;;;;12.48;84.29;100396.55;220328;1256;141464;-71
2023/09/03 02:20:04;;;;;;;10.80;8.80;;;;;;;12.56;84.24;100395.27;220354;1256;140452;-70
2023/09/03 02:25:08;;;;;;;9.00;7.20;;;;;;;12.57;83.74;100389.09;218971;1256;140832;-71
2023/09/03 02:30:11;;;;;;;7.40;6.70;;;;;;;12.56;83.86;100387.55;219496;1257;141166;-70
2023/09/03 02:35:14;;;;;;;8.00;7.00;;;;;;;12.55;84.06;100385.17;219160;1260;140850;-71
2023/09/03 02:40:17;;;;;;;10.70;7.10;;;;;;;12.55;84.01;100380.00;218931;1258;141433;-71
2023/09/03 02:45:20;;;;;;;9.90;8.70;;;;;;;12.56;84.32;100375.58;217583;1257;140458;-69
2023/09/03 02:50:24;;;;;;;13.30;8.00;;;;;;;12.63;84.59;100376.49;218296;1257;139993;-73
2023/09/03 02:55:29;;;;;;;9.80;7.30;;;;;;;12.67;84.53;100373.02;217644;1257;140396;-69
2023/09/03 03:00:33;;;;;;;8.90;8.00;;;;;;;12.65;84.50;100377.04;218715;1256;142182;-70
2023/09/03 03:05:38;;;;;;;12.00;8.90;;;;;;;12.65;84.89;100380.57;218364;1257;141656;-70
2023/09/03 03:10:40;;;;;;;9.80;8.30;;;;;;;12.70;85.16;100385.98;217763;1258;140900;-69
2023/09/03 03:15:44;;;;;;;8.50;7.70;;;;;;;12.70;84.85;100387.52;217848;1257;140104;-70
2023/09/03 03:20:47;;;;;;;11.50;8.40;;;;;;;12.68;85.31;100396.65;218563;1257;140907;-69
2023/09/03 03:25:53;;;;;;;9.10;7.60;;;;;;;12.72;85.27;100394.91;217886;1257;140527;-70
2023/09/03 03:30:56;;;;;;;9.40;8.10;;;;;;;12.74;85.49;100396.52;217696;1256;140051;-70
2023/09/03 03:36:00;;;;;;;9.00;7.80;;;;;;;12.80;85.78;100397.73;217523;1257;139860;-68
2023/09/03 03:41:15;;;;;;;9.30;8.60;;;;;;;12.81;85.87;100397.59;217697;1257;142208;-68
2023/09/03 03:46:20;;;;;;;10.30;8.80;;;;;;;12.84;85.86;100400.63;218631;1258;141758;-69
2023/09/03 03:51:24;;;;;;;8.80;8.10;;;;;;;12.88;86.21;100402.26;217858;1256;140658;-69
2023/09/03 03:56:27;;;;;;;8.40;7.30;;;;;;;12.92;86.28;100401.13;219530;1256;140052;-71
2023/09/03 04:01:30;;;;;;;10.30;7.50;;;;;;;12.88;85.64;100401.80;220184;1257;141182;-70
2023/09/03 04:06:34;;;;;;;8.40;7.60;;;;;;;12.82;85.34;100403.38;220436;1256;140236;-71
2023/09/03 04:11:38;;;;;;;9.80;8.90;;;;;;;12.82;85.38;100404.24;220600;1256;141073;-71
2023/09/03 04:16:42;;;;;;;7.90;7.30;;;;;;;12.87;85.62;100411.13;219651;1257;140584;-71
2023/09/03 04:21:45;;;;;;;9.90;9.00;;;;;;;12.95;85.69;100413.83;219991;1256;141280;-70
2023/09/03 04:26:48;;;;;;;9.00;7.30;;;;;;;13.03;85.86;100415.88;219614;1256;140291;-71
2023/09/03 04:31:52;;;;;;;9.70;7.40;;;;;;;13.03;85.70;100415.41;218398;1257;140715;-70
2023/09/03 04:36:55;;;;;;;11.10;8.70;;;;;;;12.99;85.69;100420.09;218074;1256;140310;-72
2023/09/03 04:41:59;;;;;;;9.10;7.00;;;;;;;13.00;85.86;100424.48;218419;1256;140363;-72
2023/09/03 04:47:05;;;;;;;7.80;7.10;;;;;;;13.06;86.46;100425.17;217619;1257;140385;-72
2023/09/03 04:52:08;;;;;;;9.90;8.80;;;;;;;13.10;86.66;100424.30;219151;1256;140222;-70
2023/09/03 04:57:11;;;;;;;13.60;9.50;;;;;;;13.17;87.06;100421.55;218551;1257;140630;-71
2023/09/03 05:02:15;;;;;;;10.50;8.80;;;;;;;13.29;87.25;100414.21;218039;1257;140902;-71
2023/09/03 05:07:19;;;;;;;10.60;8.60;;;;;;;13.37;87.06;100421.57;217661;1257;140073;-71
2023/09/03 05:12:24;;;;;;;11.30;9.70;;;;;;;13.56;87.16;100425.38;218101;1257;140059;-73
2023/09/03 05:17:28;;;;;;;8.60;7.80;;;;;;;13.71;87.10;100426.13;218065;1258;140427;-72
2023/09/03 05:22:31;;;;;;;15.80;8.60;;;;;;;13.85;87.19;100427.23;217741;1257;141457;-71
2023/09/03 05:27:34;;;;;;;13.00;10.40;;;;;;;13.98;87.60;100429.21;218343;1257;140188;-70
2023/09/03 05:32:42;;;;;;;11.80;10.60;;;;;;;14.17;87.80;100432.70;217684;1256;140110;-69
2023/09/03 05:37:46;;;;;;;12.10;10.90;;;;;;;14.34;88.03;100435.48;218625;1256;141346;-71
2023/09/03 05:42:49;;;;;;;18.30;11.10;;;;;;;14.56;88.09;100444.77;218891;1256;140544;-69
2023/09/03 05:47:53;;;;;;;12.50;11.40;;;;;;;14.83;88.03;100454.17;217439;1257;140439;-71
2023/09/03 05:52:56;;;;;;;12.50;10.70;;;;;;;15.11;87.71;100454.09;218091;1259;140428;-72
2023/09/03 05:57:59;;;;;;;16.60;12.50;;;;;;;15.31;87.28;100450.94;218351;1256;141607;-71
2023/09/03 06:03:02;;;;;;;13.50;11.70;;;;;;;15.54;87.00;100450.98;219823;1257;141690;-73
2023/09/03 06:08:06;;;;;;;16.80;12.10;;;;;;;15.73;86.55;100453.87;217969;1257;140836;-69
2023/09/03 06:13:14;;;;;;;19.20;12.00;;;;;;;15.97;86.31;100454.23;219159;1256;140232;-71
2023/09/03 06:18:20;;;;;;;14.10;12.10;;;;;;;16.25;86.01;100454.84;218355;1256;141939;-68
2023/09/03 06:23:26;;;;;;;13.60;12.10;;;;;;;16.54;85.52;100455.70;218464;1256;141226;-73
2023/09/03 06:28:28;;;;;;;12.60;10.60;;;;;;;16.95;85.01;100467.63;218492;1257;141023;-70
2023/09/03 06:33:33;;;;;;;11.20;10.10;;;;;;;17.46;84.55;100468.05;217725;1260;141947;-72
2023/09/03 06:38:39;;;;;;;14.50;11.50;;;;;;;17.94;83.82;100472.02;218391;1259;141486;-71
2023/09/03 06:43:43;;;;;;;14.30;10.70;;;;;;;18.39;83.15;100471.25;217536;1257;141818;-69
2023/09/03 06:48:48;;;;;;;9.60;8.70;;;;;;;18.80;82.21;100476.98;218707;1257;140284;-69
2023/09/03 06:53:59;;;;;;;16.00;10.10;;;;;;;19.07;81.02;100485.44;217771;1260;140561;-69
2023/09/03 06:59:02;;;;;;;11.80;10.50;;;;;;;19.20;80.07;100495.48;217870;1258;140294;-69
2023/09/03 07:04:08;;;;;;;10.40;9.40;;;;;;;19.20;79.51;100504.83;217727;1257;141276;-69
2023/09/03 07:09:12;;;;;;;10.60;9.70;;;;;;;19.14;78.97;100514.62;217633;1260;140671;-70
2023/09/03 07:14:16;;;;;;;11.90;9.90;;;;;;;19.10;78.93;100520.50;218268;1256;140495;-69
2023/09/03 07:19:20;;;;;;;10.50;9.40;;;;;;;19.13;78.85;100526.83;217406;1258;141667;-69
2023/09/03 07:24:24;;;;;;;8.90;8.10;;;;;;;19.34;78.83;100533.88;217884;1259;140664;-70
2023/09/03 07:29:26;;;;;;;9.80;8.80;;;;;;;19.78;78.70;100540.23;218016;1257;141248;-69
2023/09/03 07:34:32;;;;;;;9.00;8.00;;;;;;;20.09;78.10;100537.50;218577;1256;142649;-67
2023/09/03 07:39:37;;;;;;;13.90;8.90;;;;;;;20.31;77.24;100537.28;218564;1256;141060;-68
2023/09/03 07:44:40;;;;;;;9.90;8.10;;;;;;;20.64;77.02;100536.39;217900;1256;141116;-68
2023/09/03 07:49:44;;;;;;;7.80;7.10;;;;;;;21.27;76.74;100536.04;218971;1256;140581;-68
2023/09/03 07:54:46;;;;;;;7.00;5.90;;;;;;;21.90;75.73;100536.73;220403;1256;140737;-69
2023/09/03 07:59:52;;;;;;;7.30;6.20;;;;;;;22.48;74.53;100536.13;219044;1256;142054;-67
2023/09/03 08:04:55;;;;;;;8.00;6.40;;;;;;;22.94;73.17;100537.33;219843;1256;139623;-68
2023/09/03 08:10:02;;;;;;;4.70;4.40;;;;;;;23.25;72.21;100535.11;220129;1256;140007;-66
2023/09/03 08:15:07;;;;;;;4.80;4.30;;;;;;;23.51;70.96;100536.11;218010;1257;139784;-66
2023/09/03 08:20:12;;;;;;;5.80;4.50;;;;;;;23.77;70.02;100539.27;218554;1256;139567;-68
2023/09/03 08:25:20;;;;;;;4.30;3.90;;;;;;;23.95;68.80;100540.90;218333;1256;139704;-67
2023/09/03 08:30:34;;;;;;;5.00;3.80;;;;;;;24.19;67.94;100544.64;218399;1257;140654;-67
2023/09/03 08:35:37;;;;;;;4.10;3.80;;;;;;;24.43;67.13;100546.98;218117;1257;140412;-68
2023/09/03 08:40:41;;;;;;;3.80;2.90;;;;;;;24.48;65.79;100548.58;217930;1257;140851;-67
2023/09/03 08:45:58;;;;;;;3.70;3.40;;;;;;;24.57;64.90;100537.05;218361;1256;139552;-67
2023/09/03 08:51:04;;;;;;;3.10;2.80;;;;;;;24.63;64.22;100544.52;217745;1257;139872;-68
2023/09/03 08:56:08;;;;;;;3.00;2.80;;;;;;;24.71;63.37;100551.27;218720;1256;140448;-68
2023/09/03 09:01:16;;;;;;;2.80;2.50;;;;;;;24.87;62.30;100559.95;217960;1256;141310;-66
2023/09/03 09:06:22;;;;;;;2.90;2.70;;;;;;;24.99;61.28;100562.42;218615;1256;140868;-67
2023/09/03 09:11:31;;;;;;;4.80;3.50;;;;;;;24.76;60.30;100564.41;218010;1257;152892;-68
2023/09/03 09:16:35;;;;;;;3.50;3.00;;;;;;;24.45;60.03;100565.62;218614;1256;139451;-67
2023/09/03 09:21:38;;;;;;;3.30;3.00;;;;;;;24.25;59.44;100563.60;217619;1257;139646;-68
2023/09/03 09:26:43;;;;;;;3.30;3.00;;;;;;;23.79;59.35;100561.76;218419;1260;140717;-69
2023/09/03 09:31:47;;;;;;;2.90;2.70;;;;;;;23.57;59.38;100564.24;219282;1256;139427;-67
2023/09/03 09:36:54;;;;;;;3.70;2.40;;;;;;;23.44;59.54;100562.95;220296;1256;140545;-67
2023/09/03 09:42:12;;;;;;;4.10;2.20;;;;;;;23.45;59.20;100557.22;218527;1256;140249;-67
2023/09/03 09:47:17;;;;;;;13.40;2.80;;;;;;;24.11;59.23;100552.22;217995;1259;139674;-68
2023/09/03 09:52:21;;;;;;;4.30;2.10;;;;;;;24.51;58.00;100548.55;218943;1256;140316;-67
2023/09/03 09:57:25;;;;;;;2.50;2.10;;;;;;;24.65;56.93;100550.93;220475;1259;139808;-68
2023/09/03 10:02:28;;;;;;;2.50;2.30;;;;;;;25.01;56.55;100548.92;220535;1256;142524;-67
2023/09/03 10:07:32;;;;;;;4.00;1.80;;;;;;;25.22;55.32;100547.48;219463;1256;139529;-67
2023/09/03 10:12:35;;;;;;;2.60;2.10;;;;;;;25.29;54.98;100545.88;220017;1256;139408;-67
2023/09/03 10:17:44;;;;;;;3.70;1.80;;;;;;;25.40;54.12;100551.20;219717;1256;140015;-67
2023/09/03 10:22:52;;;;;;;3.40;2.20;;;;;;;25.09;52.90;100546.05;218404;1256;139499;-70
2023/09/03 10:28:05;;;;;;;1.70;1.60;;;;;;;25.44;53.30;100536.31;217327;1258;139365;-69
2023/09/03 10:33:09;;;;;;;10.20;2.30;;;;;;;25.78;52.52;100537.36;218339;1259;140381;-74
2023/09/03 10:38:32;;;;;;;2.20;2.00;;;;;;;25.84;52.24;100543.63;217572;1256;140115;-74
2023/09/03 10:43:35;;;;;;;2.70;1.70;;;;;;;25.72;51.41;100543.23;217426;1257;139568;-73
2023/09/03 10:48:51;;;;;;;1.60;1.50;;;;;;;25.14;51.10;100545.89;217664;1256;139823;-69
2023/09/03 10:53:54;;;;;;;2.40;2.00;;;;;;;25.01;51.76;100549.69;217289;1257;312088;-68
2023/09/03 10:58:57;;;;;;;2.70;1.60;;;;;;;25.26;51.11;100555.20;217613;1259;140238;-67
2023/09/03 11:04:02;;;;;;;2.20;2.00;;;;;;;25.23;50.27;100551.05;218265;1256;139802;-69
2023/09/03 11:09:10;;;;;;;1.90;1.70;;;;;;;25.26;50.75;100548.42;217529;1257;140441;-69
2023/09/03 11:14:14;;;;;;;4.20;1.80;;;;;;;24.88;50.65;100549.42;217489;1256;139159;-69
2023/09/03 11:19:17;;;;;;;2.30;1.90;;;;;;;24.50;50.86;100546.88;217509;1257;140150;-68
2023/09/03 11:24:20;;;;;;;17.80;2.90;;;;;;;24.13;51.27;100544.83;218457;1256;139233;-69
2023/09/03 11:29:24;;;;;;;2.30;2.10;;;;;;;24.46;51.86;100544.30;218091;1256;140182;-66
2023/09/03 11:34:29;;;;;;;2.10;1.60;;;;;;;24.80;51.01;100547.75;217602;1256;139917;-70
2023/09/03 11:39:32;;;;;;;2.00;1.90;;;;;;;25.11;50.66;100551.84;219361;1256;139657;-70
2023/09/03 11:44:36;;;;;;;2.20;1.70;;;;;;;25.09;49.69;100545.80;218867;1256;140908;-68
2023/09/03 11:49:45;;;;;;;1.90;1.70;;;;;;;25.30;49.11;100545.59;218595;1259;139131;-68
2023/09/03 11:54:48;;;;;;;3.90;1.90;;;;;;;25.59;48.56;100534.50;218890;1257;139015;-70
2023/09/03 11:59:51;;;;;;;3.20;1.80;;;;;;;25.82;48.29;100538.93;220414;1256;140178;-70
2023/09/03 12:04:55;;;;;;;3.20;2.30;;;;;;;25.93;47.79;100535.02;220605;1256;140520;-70
2023/09/03 12:09:57;;;;;;;2.20;2.00;;;;;;;26.09;47.46;100531.63;220065;1257;139684;-71
2023/09/03 12:15:01;;;;;;;6.10;2.60;;;;;;;26.03;47.32;100527.60;220363;1256;141236;-73
2023/09/03 12:20:04;;;;;;;3.40;1.60;;;;;;;25.89;47.02;100524.88;218795;1256;139612;-71
2023/09/03 12:25:07;;;;;;;2.00;1.70;;;;;;;25.87;46.67;100509.84;219161;1256;139322;-70
2023/09/03 12:30:11;;;;;;;1.30;1.20;;;;;;;25.89;45.61;100510.45;217942;1256;140343;-68
2023/09/03 12:35:16;;;;;;;2.00;1.40;;;;;;;25.78;44.94;100514.79;218203;1260;140803;-67
2023/09/03 12:40:21;;;;;;;5.10;1.90;;;;;;;25.75;45.12;100513.16;218353;1260;141084;-71
2023/09/03 12:45:24;;;;;;;2.00;1.90;;;;;;;25.60;45.26;100511.86;219044;1256;141247;-71
2023/09/03 12:50:28;;;;;;;2.40;1.60;;;;;;;25.66;45.61;100508.52;218369;1256;140391;-69
2023/09/03 12:55:30;;;;;;;2.10;1.70;;;;;;;25.70;45.14;100509.65;217875;1257;139455;-69
2023/09/03 13:00:35;;;;;;;1.90;1.80;;;;;;;25.71;44.87;100496.52;217615;1259;139577;-70
2023/09/03 13:05:39;;;;;;;2.40;2.20;;;;;;;25.54;44.62;100503.54;217856;1257;139708;-70
2023/09/03 13:10:43;;;;;;;2.10;1.80;;;;;;;25.32;44.73;100509.45;218184;1260;139323;-70
2023/09/03 13:15:46;;;;;;;2.40;1.80;;;;;;;25.22;45.08;100508.95;218081;1260;139440;-71
2023/09/03 13:20:49;;;;;;;6.60;2.00;;;;;;;25.18;45.43;100508.87;217819;1260;140451;-70
2023/09/03 13:25:52;;;;;;;2.80;2.20;;;;;;;25.23;45.67;100513.63;218277;1256;139994;-71
2023/09/03 13:30:55;;;;;;;2.50;1.80;;;;;;;25.22;44.91;100506.06;218717;1256;139466;-72
2023/09/03 13:36:10;;;;;;;2.20;1.90;;;;;;;25.07;44.80;100510.05;217754;1259;141545;-67
2023/09/03 13:41:15;;;;;;;8.50;2.60;;;;;;;24.82;44.09;100513.73;218724;1256;139220;-69
2023/09/03 13:46:21;;;;;;;4.20;2.30;;;;;;;24.69;44.19;100514.92;217720;1258;139493;-68
2023/09/03 13:51:28;;;;;;;3.00;1.60;;;;;;;24.73;44.89;100523.49;218834;1256;209998;-73
2023/09/03 13:56:32;;;;;;;3.40;2.00;;;;;;;24.52;45.04;100525.89;218551;1258;139729;-71
2023/09/03 14:01:37;;;;;;;2.00;1.80;;;;;;;24.31;45.45;100525.83;217824;1257;139140;-72
2023/09/03 14:06:41;;;;;;;;;;;;;;;24.37;45.90;100537.48;218105;1260;140038;-71
2023/09/03 14:11:45;;;;;;;4.40;3.00;;;;;;;24.30;45.88;100537.30;218946;1257;125749;-70
2023/09/03 14:16:51;;;;;;;4.10;2.10;;;;;;;24.16;45.81;100534.83;218151;1257;140218;-70
2023/09/03 14:21:55;;;;;;;1.80;1.70;;;;;;;24.13;45.99;100530.84;218163;1256;139844;-71
2023/09/03 14:27:01;;;;;;;2.50;2.30;;;;;;;24.17;46.23;100530.41;218054;1257;140156;-70
2023/09/03 14:32:06;;;;;;;2.10;1.70;;;;;;;24.20;46.19;100525.54;218409;1256;141014;-71
2023/09/03 14:37:09;;;;;;;6.60;2.40;;;;;;;24.05;45.91;100530.73;217857;1257;139319;-70
2023/09/03 14:42:13;;;;;;;2.10;2.00;;;;;;;23.99;46.01;100538.51;218327;1257;139194;-69
2023/09/03 14:47:17;;;;;;;6.40;1.90;;;;;;;23.94;46.08;100543.70;218001;1256;140151;-69
2023/09/03 14:52:21;;;;;;;2.30;2.10;;;;;;;23.87;46.01;100535.84;217675;1261;139691;-69
2023/09/03 14:57:26;;;;;;;11.70;3.10;;;;;;;23.84;46.07;100535.92;218334;1259;139967;-69
2023/09/03 15:02:30;;;;;;;3.10;2.20;;;;;;;23.83;45.87;100540.69;217734;1256;140155;-69
2023/09/03 15:07:33;;;;;;;1.40;1.40;;;;;;;23.79;45.52;100537.76;218637;1256;139740;-70
2023/09/03 15:12:36;;;;;;;2.30;1.70;;;;;;;23.71;45.45;100542.55;218189;1260;139633;-72
2023/09/03 15:17:39;;;;;;;10.30;2.40;;;;;;;23.57;45.75;100544.23;217791;1260;140139;-69
2023/09/03 15:22:43;;;;;;;1.90;1.80;;;;;;;23.34;45.91;100541.52;218022;1256;140761;-73
2023/09/03 15:27:47;;;;;;;1.90;1.80;;;;;;;23.16;46.42;100545.98;218275;1257;140136;-69
2023/09/03 15:32:54;;;;;;;1.80;1.70;;;;;;;23.01;46.73;100551.02;217727;1257;139485;-71
2023/09/03 15:38:02;;;;;;;1.60;1.50;;;;;;;22.86;47.11;100550.52;217865;1258;139808;-71
2023/09/03 15:43:12;;;;;;;2.30;1.40;;;;;;;22.71;46.93;100545.92;217774;1261;140255;-69
2023/09/03 15:48:15;;;;;;;3.00;1.30;;;;;;;22.55;47.12;100555.10;219219;1257;140081;-68
2023/09/03 15:53:18;;;;;;;2.40;1.80;;;;;;;22.39;47.26;100553.85;219084;1256;139902;-69
2023/09/03 15:58:25;;;;;;;1.80;1.30;;;;;;;22.24;47.71;100558.20;218354;1257;139189;-69
2023/09/03 16:03:29;;;;;;;2.20;1.40;;;;;;;22.12;48.12;100559.10;219225;1259;139212;-70
2023/09/03 16:08:33;;;;;;;2.10;1.40;;;;;;;21.99;48.50;100561.98;217984;1261;139113;-73
2023/09/03 16:13:37;;;;;;;1.60;1.50;;;;;;;21.84;48.88;100561.33;217624;1261;139543;-70
2023/09/03 16:18:40;;;;;;;2.10;1.50;;;;;;;21.65;48.90;100560.63;219453;1260;140068;-71
2023/09/03 16:23:44;;;;;;;1.80;1.50;;;;;;;21.44;49.07;100559.80;218205;1257;139373;-71
2023/09/03 16:28:47;;;;;;;2.30;1.50;;;;;;;21.25;49.19;100560.90;217724;1256;140480;-67
2023/09/03 16:33:51;;;;;;;1.50;1.40;;;;;;;21.07;49.40;100561.58;218207;1257;140036;-69
2023/09/03 16:38:53;;;;;;;9.70;3.10;;;;;;;20.93;49.82;100566.36;217687;1257;140569;-69
2023/09/03 16:43:57;;;;;;;3.00;2.70;;;;;;;20.80;50.46;100571.83;217604;1256;140525;-73
2023/09/03 16:49:02;;;;;;;3.70;2.60;;;;;;;20.64;50.82;100571.77;217854;1261;139268;-72
2023/09/03 16:54:08;;;;;;;2.80;1.70;;;;;;;20.54;51.29;100577.20;218027;1257;141264;-72
2023/09/03 16:59:13;;;;;;;2.40;1.70;;;;;;;20.41;51.91;100588.48;218207;1259;139864;-68
2023/09/03 17:04:17;;;;;;;2.20;2.00;;;;;;;20.27;52.19;100593.61;217592;1256;140244;-73
2023/09/03 17:09:22;;;;;;;2.00;1.90;;;;;;;20.14;52.89;100598.16;219145;1259;139696;-69
2023/09/03 17:14:27;;;;;;;1.90;1.80;;;;;;;20.04;53.51;100608.60;217625;1261;139617;-70
2023/09/03 17:19:34;;;;;;;2.00;1.90;;;;;;;19.92;54.11;100607.77;219597;1261;139531;-70
2023/09/03 17:24:47;;;;;;;2.90;2.20;;;;;;;19.78;54.95;100621.83;218876;1257;140231;-72
2023/09/03 17:29:51;;;;;;;3.40;2.10;;;;;;;19.66;55.66;100628.77;219189;1257;139807;-71
2023/09/03 17:34:57;;;;;;;2.60;2.10;;;;;;;19.50;56.26;100634.20;219417;1257;140470;-70
2023/09/03 17:40:04;;;;;;;2.30;2.10;;;;;;;19.33;56.94;100634.55;219857;1258;141594;-71
2023/09/03 17:45:13;;;;;;;88.10;10.90;;;;;;;19.18;57.55;100645.27;218042;1257;139905;-71
2023/09/03 17:50:18;;;;;;;2.20;2.00;;;;;;;19.03;58.01;100655.40;219958;1256;140616;-71
2023/09/03 17:55:25;;;;;;;2.50;2.30;;;;;;;18.86;58.55;100656.30;220365;1260;209860;-71
2023/09/03 18:00:30;;;;;;;4.10;2.70;;;;;;;18.71;59.18;100656.79;220359;1256;140045;-71
2023/09/03 18:05:35;;;;;;;2.50;2.30;;;;;;;18.59;59.86;100658.11;220362;1256;140353;-71
2023/09/03 18:10:40;;;;;;;8.10;2.60;;;;;;;18.47;60.24;100663.71;218245;1257;142413;-71
2023/09/03 18:15:46;;;;;;;3.30;2.90;;;;;;;18.34;60.84;100665.54;217533;1257;140024;-70
2023/09/03 18:20:53;;;;;;;2.60;2.30;;;;;;;18.23;61.19;100673.54;218565;1257;140029;-68
2023/09/03 18:25:57;;;;;;;5.40;2.40;;;;;;;18.11;61.70;100685.13;217567;1257;140541;-71
2023/09/03 18:31:04;;;;;;;2.80;2.60;;;;;;;17.95;62.13;100684.27;218027;1258;140235;-73
2023/09/03 18:36:08;;;;;;;2.60;2.20;;;;;;;17.80;62.61;100690.59;217425;1260;140252;-71
2023/09/03 18:41:16;;;;;;;6.60;3.00;;;;;;;17.66;62.85;100693.45;218510;1257;141897;-70
2023/09/03 18:46:20;;;;;;;3.80;2.30;;;;;;;17.58;63.56;100696.11;217356;1260;140213;-71
2023/09/03 18:51:23;;;;;;;2.80;2.50;;;;;;;17.47;64.03;100692.36;218015;1257;140242;-70
2023/09/03 18:56:27;;;;;;;3.10;2.70;;;;;;;17.35;64.31;100702.29;218284;1260;140143;-71
2023/09/03 19:01:35;;;;;;;3.30;3.00;;;;;;;17.26;64.61;100701.66;217757;1256;142146;-71
2023/09/03 19:06:41;;;;;;;3.30;3.00;;;;;;;17.20;64.46;100703.54;217629;1262;141033;-69
2023/09/03 19:11:50;;;;;;;3.70;3.10;;;;;;;17.22;64.23;100707.21;218265;1260;140939;-69
2023/09/03 19:16:56;;;;;;;9.80;3.20;;;;;;;17.24;64.11;100714.35;218341;1257;141359;-70
2023/09/03 19:22:04;;;;;;;3.30;2.40;;;;;;;17.27;64.20;100723.88;217196;1257;141066;-70
2023/09/03 19:27:11;;;;;;;5.70;3.30;;;;;;;17.30;64.12;100728.69;217445;1260;140957;-68
2023/09/03 19:32:16;;;;;;;2.60;2.40;;;;;;;17.30;64.18;100729.30;218022;1260;140123;-69
2023/09/03 19:37:20;;;;;;;3.30;3.00;;;;;;;17.30;64.23;100730.00;217517;1258;140305;-69
2023/09/03 19:42:26;;;;;;;8.30;2.70;;;;;;;17.30;64.40;100730.42;218041;1262;140222;-69
2023/09/03 19:48:12;;;;;;;3.30;2.50;;;;;;;17.28;64.56;100720.86;219484;1260;140332;-69
2023/09/03 19:53:16;;;;;;;2.80;2.60;;;;;;;17.28;64.67;100709.34;219076;1257;140641;-72
2023/09/03 19:58:25;;;;;;;4.00;2.70;;;;;;;17.28;64.82;100712.35;219957;1256;142290;-72
2023/09/03 20:03:31;;;;;;;4.40;2.50;;;;;;;17.26;64.96;100717.33;220367;1257;140589;-72
2023/09/03 20:08:43;;;;;;;2.60;2.40;;;;;;;17.24;65.08;100730.48;219554;1260;141130;-71
2023/09/03 20:13:47;;;;;;;3.00;2.20;;;;;;;17.24;65.30;100733.76;220429;1260;141399;-72
2023/09/03 20:18:53;;;;;;;4.90;2.50;;;;;;;17.24;65.39;100733.22;220063;1260;140202;-71
2023/09/03 20:23:58;;;;;;;3.90;2.90;;;;;;;17.18;65.50;100732.67;219231;1258;140963;-70
2023/09/03 20:29:03;;;;;;;4.80;2.20;;;;;;;17.10;65.72;100731.40;218363;1257;140641;-70
2023/09/03 20:34:10;;;;;;;6.30;2.50;;;;;;;17.01;65.99;100728.58;217836;1257;140802;-70
2023/09/03 20:39:16;;;;;;;4.10;2.40;;;;;;;16.95;66.29;100725.85;218317;1262;142024;-70
2023/09/03 20:44:21;;;;;;;3.10;2.40;;;;;;;16.90;66.45;100736.19;217768;1258;141087;-70
2023/09/03 20:49:26;;;;;;;2.60;2.30;;;;;;;16.84;66.65;100747.59;217683;1260;140727;-70
2023/09/03 20:54:34;;;;;;;6.40;2.20;;;;;;;16.75;66.73;100758.64;217612;1260;140380;-69
2023/09/03 20:59:39;;;;;;;5.80;2.40;;;;;;;16.67;66.92;100768.55;217790;1256;140488;-70
2023/09/03 21:04:44;;;;;;;4.40;2.60;;;;;;;16.59;67.04;100762.59;218141;1260;140268;-70
2023/09/03 21:09:49;;;;;;;2.40;1.80;;;;;;;16.52;66.99;100754.64;218236;1257;139299;-69
2023/09/03 21:14:55;;;;;;;5.30;1.40;;;;;;;16.47;67.27;100760.41;217797;1260;140359;-71
2023/09/03 21:20:07;;;;;;;3.80;2.50;;;;;;;16.43;67.43;100773.27;218299;1257;140257;-71
2023/09/03 21:25:14;;;;;;;4.90;2.40;;;;;;;16.39;67.62;100778.75;217582;1260;141049;-71
2023/09/03 21:30:19;;;;;;;3.60;2.00;;;;;;;16.37;67.80;100783.89;217692;1260;139942;-71
2023/09/03 21:35:24;;;;;;;2.60;1.70;;;;;;;16.33;67.88;100788.39;218411;1257;140428;-71
2023/09/03 21:40:30;;;;;;;6.00;2.40;;;;;;;16.26;67.99;100787.44;217591;1258;140567;-72
2023/09/03 21:45:35;;;;;;;1.70;1.60;;;;;;;16.23;68.25;100793.30;219321;1256;140823;-71
2023/09/03 21:50:39;;;;;;;3.10;2.20;;;;;;;16.21;68.32;100799.63;217905;1257;139897;-70
2023/09/03 21:55:47;;;;;;;4.70;1.90;;;;;;;16.19;68.38;100804.17;218824;1257;140397;-69
2023/09/03 22:00:53;;;;;;;2.70;2.00;;;;;;;16.16;68.54;100797.58;218148;1258;142904;-70
2023/09/03 22:05:56;;;;;;;6.20;1.90;;;;;;;16.13;68.69;100799.57;220430;1258;142128;-71
2023/09/03 22:11:00;;;;;;;5.00;2.70;;;;;;;16.13;68.78;100796.11;220072;1257;141831;-70
2023/09/03 22:16:05;;;;;;;4.00;2.50;;;;;;;16.11;68.72;100791.03;219085;1257;140225;-70
2023/09/03 22:21:07;;;;;;;2.80;2.50;;;;;;;16.09;68.84;100798.00;219735;1257;141186;-71
2023/09/03 22:26:10;;;;;;;3.70;2.30;;;;;;;16.04;68.96;100808.08;220070;1256;143002;-71
2023/09/03 22:31:14;;;;;;;2.40;2.20;;;;;;;16.00;68.94;100812.10;218279;1257;142313;-68
2023/09/03 22:36:17;;;;;;;2.80;2.20;;;;;;;15.96;69.05;100814.39;218959;1257;140656;-71
2023/09/03 22:41:20;;;;;;;2.60;2.20;;;;;;;15.90;69.14;100816.34;218105;1260;140075;-70
2023/09/03 22:46:23;;;;;;;2.20;1.90;;;;;;;15.76;69.17;100803.86;217824;1257;141996;-71
2023/09/03 22:51:27;;;;;;;9.10;2.50;;;;;;;15.67;69.51;100801.96;218093;1257;140079;-71
2023/09/03 22:56:31;;;;;;;5.20;2.10;;;;;;;15.63;69.74;100805.40;217206;1256;1514761;-70
2023/09/03 23:01:35;;;;;;;2.70;2.30;;;;;;;15.53;69.56;100806.97;218083;1257;140361;-70